Claremore, OK

6:48 PM CDT on August 02, 2015 (GMT -0500)
Rural Near Claremore Lake | | Change Station
CLOSE
Current Station
Personal Weather Station
Location: Claremore, OK
Elevation: 650 ft
Nearby Weather Stations

Elev 650 ft 36.34 °N, 95.58 °W | Updated 3 minutes ago

Partly Cloudy
Partly Cloudy
102.7 °F
Feels Like 112 °F
N
0.0
Wind Variable Wind from WNW

Today
High -- | Low -- °F
--% Chance of Precip.
Yesterday
High -- | Low -- °F
Precip. -- in
6:29 AM 8:26 PM
Waning Gibbous, 91% visible
Pressure 29.86 in
Visibility 10.0 miles
Clouds Mostly Cloudy 23000 ft
Heat Index 112 °F
Dew Point 71 °F
Humidity 36%
Rainfall 0.00 in
Snow Depth Not available.
UV 2 out of 12
Pollen 4.60 out of 12
Air Quality Not available.
Flu Activity Not available.
METAR KTUL 022253Z 23005KT 10SM BKN230 32/19 A2989 RMK AO2 SLP111 T03220194 $

More Conditions Fewer Conditions

Pressure 29.86 in
Visibility 10.0 miles
Clouds Mostly Cloudy 23000 ft
Heat Index 112 °F
Dew Point 71 °F
Humidity 36%
Rainfall 0.00 in
Snow Depth Not available.
UV 2 out of 12
Pollen 4.60 out of 12
Air Quality Not available.
Flu Activity Not available.
METAR KTUL 022253Z 23005KT 10SM BKN230 32/19 A2989 RMK AO2 SLP111 T03220194 $

More Conditions Fewer Conditions

10-Day Weather Forecast

×

Almanac

Astronomy

Aug. 02, 2015 Rise Set
Actual Time
Civil Twilight
Nautical Twilight
Astronomical Twilight
Moon
Length of Visible Light
Length of Day
Tomorrow will be .
, % of the Moon is Illuminated

Today's Extremes

State Highs State Lows

Community

WunderPhotos

Upload Photos

1,843,428 photos uploaded!

WunderBlogs® & News

Nearby

Air Quality

  Air Quality AQ Index Pollutant
Not available.

Snow Depth

Station Depth Elevation

Earthquake Activity

City Distance Mag. Time & Date
Minimum magnitude displayed is 2.5.

Coastal Water Temperatures

Place Temperature

Stations

Nearby Weather Stations

Station Location Temp. Windchill Dew Point Humidity Wind Precip. Elev Updated Type